Time;durP1;ratioP1;P1;durP2;ratioP2;P2;SDS_P1;SDS_P2;PMS_P1;PMS_P2;Temp;Humidity;BMP_temperature;BMP_pressure;BME280_temperature;BME280_humidity;BME280_pressure;Samples;Min_cycle;Max_cycle;Signal;HPM_P1;HPM_P2
2023/07/01 00:00:58;;;;;;;293.85;281.20;;;17.20;99.90;;;;;;5042638;28;20464;-70
2023/07/01 00:03:24;;;;;;;304.92;291.30;;;17.20;99.90;;;;;;5024907;28;20397;-70
2023/07/01 00:05:50;;;;;;;360.88;344.67;;;17.20;99.90;;;;;;5028478;28;20045;-69
2023/07/01 00:08:16;;;;;;;353.00;336.38;;;17.20;99.90;;;;;;5010735;28;20041;-69
2023/07/01 00:10:41;;;;;;;339.73;324.75;;;17.20;99.90;;;;;;5018891;28;20033;-69
2023/07/01 00:13:07;;;;;;;325.85;311.67;;;17.20;99.90;;;;;;5027830;28;20053;-70
2023/07/01 00:15:33;;;;;;;296.05;282.90;;;17.20;99.90;;;;;;5010397;28;20052;-70
2023/07/01 00:17:59;;;;;;;319.08;305.13;;;17.20;99.90;;;;;;5042997;28;20045;-70
2023/07/01 00:20:26;;;;;;;298.55;285.90;;;17.20;99.90;;;;;;5022077;28;20577;-69
2023/07/01 00:22:53;;;;;;;330.05;315.42;;;17.10;99.90;;;;;;5027134;28;20187;-70
2023/07/01 00:25:19;;;;;;;369.55;353.02;;;17.20;99.90;;;;;;5027608;28;20161;-69
2023/07/01 00:27:45;;;;;;;301.27;288.08;;;17.10;99.90;;;;;;5025916;28;20178;-70
2023/07/01 00:30:11;;;;;;;324.60;310.52;;;17.10;99.90;;;;;;5027997;28;20170;-69
2023/07/01 00:32:37;;;;;;;283.85;270.80;;;17.10;99.90;;;;;;5031315;28;20409;-69
2023/07/01 00:35:02;;;;;;;269.98;258.08;;;17.10;99.90;;;;;;5027080;28;20045;-71
2023/07/01 00:37:30;;;;;;;288.08;275.42;;;17.10;99.90;;;;;;5024917;28;20056;-69
2023/07/01 00:39:56;;;;;;;272.55;260.92;;;17.10;99.90;;;;;;5043667;28;20581;-69
2023/07/01 00:42:21;;;;;;;251.02;240.00;;;17.10;99.90;;;;;;5019258;28;20045;-69
2023/07/01 00:44:47;;;;;;;296.38;283.23;;;17.10;99.90;;;;;;5025172;28;20120;-69
2023/07/01 00:47:13;;;;;;;278.55;266.20;;;17.10;99.90;;;;;;5037464;28;20517;-70
2023/07/01 00:49:39;;;;;;;226.73;216.95;;;17.10;99.90;;;;;;5010137;28;20072;-69
2023/07/01 00:52:06;;;;;;;285.98;273.08;;;17.20;99.90;;;;;;5044343;28;20053;-70
2023/07/01 00:54:33;;;;;;;298.38;284.75;;;17.20;99.90;;;;;;5027381;28;20041;-69
2023/07/01 00:57:01;;;;;;;246.90;235.77;;;17.10;99.90;;;;;;5019315;28;20041;-70
2023/07/01 00:59:27;;;;;;;247.88;236.73;;;17.20;99.90;;;;;;5010468;28;20064;-70
2023/07/01 01:01:57;;;;;;;240.18;229.63;;;17.20;99.90;;;;;;5025036;28;20050;-70
2023/07/01 01:04:53;;;;;;;238.13;227.90;;;17.20;99.90;;;;;;5026946;28;20049;-70
2023/07/01 01:07:38;;;;;;;307.88;293.48;;;17.20;99.90;;;;;;5030396;28;20072;-70
2023/07/01 01:10:20;;;;;;;260.63;249.13;;;17.20;99.90;;;;;;5025131;28;20076;-70
2023/07/01 01:12:47;;;;;;;214.48;204.85;;;17.30;99.90;;;;;;5027202;28;20072;-70
2023/07/01 01:15:13;;;;;;;250.68;239.00;;;17.30;99.90;;;;;;5018473;28;20120;-70
2023/07/01 01:17:41;;;;;;;228.93;218.98;;;17.30;99.90;;;;;;5042975;28;20033;-69
2023/07/01 01:20:12;;;;;;;197.02;188.55;;;17.30;99.90;;;;;;5022285;28;20558;-70
2023/07/01 01:22:44;;;;;;;232.45;222.00;;;17.30;99.90;;;;;;5033074;28;20049;-69
2023/07/01 01:25:33;;;;;;;174.65;166.73;;;17.30;99.90;;;;;;5025292;28;20077;-70
2023/07/01 01:27:59;;;;;;;213.75;204.27;;;17.30;99.90;;;;;;4992908;28;20049;-70
2023/07/01 01:30:28;;;;;;;190.57;182.30;;;17.30;99.90;;;;;;5043325;28;20058;-70
2023/07/01 01:32:54;;;;;;;192.85;184.40;;;17.30;99.90;;;;;;5026485;28;20046;-70
2023/07/01 01:35:20;;;;;;;209.80;200.63;;;17.20;99.90;;;;;;5039959;28;20591;-70
2023/07/01 01:37:58;;;;;;;249.38;238.35;;;17.20;99.90;;;;;;5021359;28;20037;-69
2023/07/01 01:40:33;;;;;;;233.80;223.82;;;17.20;99.90;;;;;;5044319;28;20056;-70
2023/07/01 01:43:19;;;;;;;264.65;252.60;;;17.20;99.90;;;;;;5025044;28;20076;-70
2023/07/01 01:45:47;;;;;;;276.50;264.83;;;17.20;99.90;;;;;;5015406;28;20448;-71
2023/07/01 01:48:13;;;;;;;229.43;218.15;;;17.10;99.90;;;;;;5025192;28;20114;-69
2023/07/01 01:50:41;;;;;;;183.10;175.07;;;17.10;99.90;;;;;;5025362;28;20041;-70
2023/07/01 01:53:10;;;;;;;176.18;168.10;;;17.10;99.90;;;;;;5005848;28;20045;-70
2023/07/01 01:55:37;;;;;;;130.93;124.60;;;17.00;99.90;;;;;;5009058;28;20088;-70
2023/07/01 01:58:03;;;;;;;96.72;91.72;;;16.90;99.90;;;;;;5015625;28;20037;-70
2023/07/01 02:00:33;;;;;;;98.15;93.55;;;16.90;99.90;;;;;;4997698;28;20040;-70
2023/07/01 02:02:59;;;;;;;139.68;133.45;;;16.80;99.90;;;;;;4999090;28;20533;-70
2023/07/01 02:05:25;;;;;;;135.43;129.15;;;16.80;99.90;;;;;;5037844;28;20041;-71
2023/07/01 02:07:51;;;;;;;157.90;150.30;;;16.80;99.90;;;;;;5025349;28;20144;-70
2023/07/01 02:10:18;;;;;;;105.60;100.60;;;16.70;99.90;;;;;;5009242;28;20096;-70
2023/07/01 02:12:44;;;;;;;98.18;93.78;;;16.70;99.90;;;;;;5038915;28;20041;-70
2023/07/01 02:15:10;;;;;;;132.15;126.03;;;16.70;99.90;;;;;;5026493;28;20040;-70
2023/07/01 02:17:35;;;;;;;115.32;109.93;;;16.80;99.90;;;;;;5008189;28;20486;-70
2023/07/01 02:20:01;;;;;;;103.28;98.40;;;16.80;99.90;;;;;;5025854;28;20030;-69
2023/07/01 02:22:27;;;;;;;132.75;126.75;;;16.80;99.90;;;;;;5003648;28;20041;-70
2023/07/01 02:24:52;;;;;;;164.63;157.15;;;16.80;99.90;;;;;;5025772;28;20057;-70
2023/07/01 02:27:19;;;;;;;148.65;141.75;;;16.90;99.90;;;;;;5006942;28;20049;-70
2023/07/01 02:29:44;;;;;;;180.57;171.65;;;16.80;99.90;;;;;;5009050;28;20107;-70
2023/07/01 02:32:10;;;;;;;133.98;127.93;;;16.90;99.90;;;;;;5024885;28;20803;-70
2023/07/01 02:34:36;;;;;;;149.50;142.18;;;16.90;99.90;;;;;;5019454;28;20037;-70
2023/07/01 02:37:01;;;;;;;121.95;116.28;;;16.90;99.90;;;;;;5040002;28;20060;-70
2023/07/01 02:39:27;;;;;;;134.77;128.30;;;17.00;99.90;;;;;;5025207;28;20049;-69
2023/07/01 02:41:52;;;;;;;130.30;124.20;;;17.00;99.90;;;;;;5024841;28;20099;-70
2023/07/01 02:44:18;;;;;;;132.52;126.20;;;17.00;99.90;;;;;;5035854;28;20057;-69
2023/07/01 02:46:44;;;;;;;185.57;174.18;;;17.00;99.90;;;;;;5028841;28;20037;-69
2023/07/01 02:49:10;;;;;;;157.60;150.18;;;17.00;99.90;;;;;;5006965;28;20494;-70
2023/07/01 02:51:35;;;;;;;141.18;134.88;;;17.00;99.90;;;;;;5027477;28;20040;-70
2023/07/01 02:54:01;;;;;;;137.07;130.65;;;17.10;99.90;;;;;;5028900;28;20045;-70
2023/07/01 02:56:26;;;;;;;156.55;149.20;;;17.00;99.90;;;;;;5009837;28;20485;-69
2023/07/01 02:58:52;;;;;;;225.48;214.88;;;17.00;99.90;;;;;;5029387;28;20045;-70
2023/07/01 03:01:18;;;;;;;226.40;215.73;;;17.00;99.90;;;;;;5012423;28;20501;-70
2023/07/01 03:03:44;;;;;;;195.45;186.90;;;17.00;99.90;;;;;;5026984;28;20143;-69
2023/07/01 03:06:10;;;;;;;171.02;163.02;;;17.00;99.90;;;;;;5027939;28;20056;-70
2023/07/01 03:08:36;;;;;;;163.60;155.98;;;17.00;99.90;;;;;;5006675;28;20286;-70
2023/07/01 03:11:03;;;;;;;124.22;118.72;;;16.90;99.90;;;;;;5022336;28;20513;-69
2023/07/01 03:13:28;;;;;;;83.85;79.95;;;16.90;99.90;;;;;;5025917;28;20414;-70
2023/07/01 03:15:55;;;;;;;93.05;88.85;;;16.90;99.90;;;;;;5020403;28;20065;-70
2023/07/01 03:18:21;;;;;;;144.93;138.57;;;16.80;99.90;;;;;;5042404;28;20124;-70
2023/07/01 03:20:46;;;;;;;140.68;134.32;;;16.70;99.90;;;;;;5025575;28;20478;-70
2023/07/01 03:23:12;;;;;;;112.22;107.35;;;16.70;99.90;;;;;;5028405;28;20516;-71
2023/07/01 03:25:38;;;;;;;120.25;114.53;;;16.60;99.90;;;;;;5027875;28;20037;-70
2023/07/01 03:28:04;;;;;;;136.07;129.43;;;16.60;99.90;;;;;;5010019;28;20067;-70
2023/07/01 03:30:30;;;;;;;176.07;168.35;;;16.60;99.90;;;;;;5025722;28;20505;-70
2023/07/01 03:32:56;;;;;;;162.02;153.48;;;16.60;99.90;;;;;;5027811;28;20053;-70
2023/07/01 03:35:22;;;;;;;195.77;187.32;;;16.60;99.90;;;;;;5028064;28;20048;-70
2023/07/01 03:37:48;;;;;;;204.82;195.90;;;16.60;99.90;;;;;;5023760;28;20095;-69
2023/07/01 03:40:14;;;;;;;175.95;168.65;;;16.60;99.90;;;;;;5015953;28;20041;-71
2023/07/01 03:42:41;;;;;;;157.82;150.77;;;16.50;99.90;;;;;;5025668;28;20064;-71
2023/07/01 03:45:08;;;;;;;130.13;124.28;;;16.50;99.90;;;;;;5028847;28;20049;-70
2023/07/01 03:47:35;;;;;;;116.93;111.43;;;16.50;99.90;;;;;;5027231;28;20515;-71
2023/07/01 03:50:00;;;;;;;113.97;108.22;;;16.50;99.90;;;;;;5023179;28;20494;-70
2023/07/01 03:52:26;;;;;;;120.55;115.00;;;16.40;99.90;;;;;;5024475;28;20042;-70
2023/07/01 03:54:52;;;;;;;121.47;115.97;;;16.40;99.90;;;;;;5026614;28;20125;-69
2023/07/01 03:57:17;;;;;;;100.22;95.63;;;16.50;99.90;;;;;;5017135;28;20075;-70
2023/07/01 03:59:43;;;;;;;146.07;139.35;;;16.40;99.90;;;;;;5026984;28;20052;-70
2023/07/01 04:02:10;;;;;;;186.40;178.00;;;16.40;99.90;;;;;;5011505;28;20524;-70
2023/07/01 04:04:36;;;;;;;224.73;214.05;;;16.40;99.90;;;;;;5006323;28;20565;-70
2023/07/01 04:07:02;;;;;;;214.07;204.60;;;16.40;99.90;;;;;;5029042;28;20049;-70
2023/07/01 04:09:29;;;;;;;189.18;180.30;;;16.40;99.90;;;;;;5009334;28;20630;-70
2023/07/01 04:11:54;;;;;;;162.50;155.35;;;16.40;99.90;;;;;;5027774;28;20057;-70
2023/07/01 04:14:23;;;;;;;183.73;175.65;;;16.40;99.90;;;;;;5008919;28;20045;-70
2023/07/01 04:16:49;;;;;;;205.18;196.50;;;16.40;99.90;;;;;;5010652;28;20053;-70
2023/07/01 04:19:15;;;;;;;186.40;178.25;;;16.40;99.90;;;;;;5040458;28;20116;-69
2023/07/01 04:21:40;;;;;;;213.77;203.93;;;16.40;99.90;;;;;;5007874;28;20215;-71
2023/07/01 04:24:07;;;;;;;183.82;175.93;;;16.40;99.90;;;;;;5026925;28;20128;-70
2023/07/01 04:26:35;;;;;;;156.57;149.75;;;16.50;99.90;;;;;;5018392;28;20045;-70
2023/07/01 04:29:01;;;;;;;165.45;158.18;;;16.50;99.90;;;;;;5027630;28;20088;-70
2023/07/01 04:31:27;;;;;;;196.13;187.45;;;16.50;99.90;;;;;;5026152;28;20497;-70
2023/07/01 04:33:54;;;;;;;183.35;175.30;;;16.50;99.90;;;;;;5038193;28;20044;-70
2023/07/01 04:36:19;;;;;;;192.45;184.18;;;16.50;99.90;;;;;;5021174;28;20052;-70
2023/07/01 04:38:45;;;;;;;192.10;183.63;;;16.50;99.90;;;;;;5027369;28;20041;-71
2023/07/01 04:41:11;;;;;;;198.57;190.05;;;16.50;99.90;;;;;;5011021;28;20048;-70
2023/07/01 04:43:36;;;;;;;175.77;168.25;;;16.50;99.90;;;;;;5023710;28;20079;-70
2023/07/01 04:46:03;;;;;;;153.95;147.05;;;16.50;99.90;;;;;;5007981;28;21001;-69
2023/07/01 04:48:29;;;;;;;228.63;214.77;;;16.50;99.90;;;;;;5017086;28;20137;-69
2023/07/01 04:50:54;;;;;;;170.25;162.65;;;16.60;99.90;;;;;;5023914;28;20565;-69
2023/07/01 04:53:20;;;;;;;181.63;173.70;;;16.60;99.90;;;;;;5027291;28;20095;-70
2023/07/01 04:55:46;;;;;;;190.60;182.55;;;16.60;99.90;;;;;;5024363;28;20460;-69
2023/07/01 04:58:12;;;;;;;179.15;170.82;;;16.60;99.90;;;;;;5028868;28;20060;-70
2023/07/01 05:00:37;;;;;;;171.25;163.60;;;16.60;99.90;;;;;;5042385;28;20048;-70
2023/07/01 05:03:06;;;;;;;189.38;180.77;;;16.60;99.90;;;;;;5036044;28;20049;-70
2023/07/01 05:05:32;;;;;;;207.02;197.20;;;16.60;99.90;;;;;;5021868;28;20450;-70
2023/07/01 05:07:58;;;;;;;182.88;174.98;;;16.70;99.90;;;;;;5020668;28;20196;-70
2023/07/01 05:10:23;;;;;;;186.50;178.50;;;16.70;99.90;;;;;;5019290;28;20053;-69
2023/07/01 05:12:50;;;;;;;183.43;175.60;;;16.70;99.90;;;;;;5025684;28;20107;-71
2023/07/01 05:15:16;;;;;;;173.90;166.23;;;16.70;99.90;;;;;;5024602;28;20060;-70
2023/07/01 05:17:42;;;;;;;169.27;162.07;;;16.70;99.90;;;;;;5024655;28;20103;-70
2023/07/01 05:20:09;;;;;;;176.23;168.32;;;16.70;99.90;;;;;;5026114;28;20547;-69
2023/07/01 05:22:35;;;;;;;175.93;168.23;;;16.70;99.90;;;;;;5027243;28;20049;-70
2023/07/01 05:25:02;;;;;;;173.00;165.20;;;16.70;99.90;;;;;;5024184;28;20085;-70
2023/07/01 05:27:27;;;;;;;157.75;150.80;;;16.70;99.90;;;;;;5029262;28;20041;-71
2023/07/01 05:29:53;;;;;;;176.13;167.63;;;16.70;99.90;;;;;;5025193;28;20100;-70
2023/07/01 05:32:19;;;;;;;166.50;159.30;;;16.80;99.90;;;;;;5025557;28;20467;-70
2023/07/01 05:34:44;;;;;;;164.55;157.43;;;16.80;99.90;;;;;;5023527;28;20055;-71
2023/07/01 05:37:10;;;;;;;171.68;163.55;;;16.80;99.90;;;;;;5025572;28;20037;-70
2023/07/01 05:39:36;;;;;;;166.07;158.63;;;16.80;99.90;;;;;;5019384;28;20132;-70
2023/07/01 05:42:02;;;;;;;137.80;131.43;;;16.80;99.90;;;;;;5037122;28;20462;-70
2023/07/01 05:44:27;;;;;;;143.30;136.85;;;16.80;99.90;;;;;;5025797;28;20533;-70
2023/07/01 05:46:53;;;;;;;160.20;152.80;;;16.80;99.90;;;;;;5027024;28;20068;-71
2023/07/01 05:49:19;;;;;;;133.27;126.30;;;16.90;99.90;;;;;;5020206;28;20041;-71
2023/07/01 05:51:45;;;;;;;107.15;102.03;;;16.90;99.90;;;;;;5025759;28;20382;-70
2023/07/01 05:54:11;;;;;;;120.93;115.30;;;16.90;99.90;;;;;;5026860;28;20041;-70
2023/07/01 05:56:36;;;;;;;132.13;125.97;;;16.80;99.90;;;;;;5026896;28;20568;-70
2023/07/01 05:59:02;;;;;;;143.77;136.90;;;16.80;99.90;;;;;;5019882;28;20611;-70
2023/07/01 06:01:29;;;;;;;109.55;104.40;;;16.70;99.90;;;;;;5042971;28;20481;-71
2023/07/01 06:03:54;;;;;;;160.63;153.50;;;16.70;99.90;;;;;;5013364;28;20041;-70
2023/07/01 06:06:21;;;;;;;210.07;199.45;;;16.70;99.90;;;;;;5024707;28;20218;-70
2023/07/01 06:08:47;;;;;;;140.65;134.35;;;16.70;99.90;;;;;;5024286;28;20385;-69
2023/07/01 06:11:13;;;;;;;138.10;131.73;;;16.70;99.90;;;;;;5025170;28;20041;-69
2023/07/01 06:13:44;;;;;;;117.43;111.93;;;16.60;99.90;;;;;;5026142;28;20041;-69
2023/07/01 06:16:10;;;;;;;137.23;131.02;;;16.50;99.90;;;;;;5015967;28;20046;-70
2023/07/01 06:18:35;;;;;;;144.70;137.98;;;16.50;99.90;;;;;;5020115;28;20089;-70
2023/07/01 06:21:03;;;;;;;137.38;130.57;;;16.50;99.90;;;;;;5006959;28;20112;-70
2023/07/01 06:23:30;;;;;;;113.53;107.65;;;16.50;99.90;;;;;;5024881;28;20057;-70
2023/07/01 06:25:57;;;;;;;119.50;113.38;;;16.40;99.90;;;;;;5021065;28;20555;-69
2023/07/01 06:28:22;;;;;;;129.43;122.82;;;16.40;99.90;;;;;;5022424;28;20501;-70
2023/07/01 06:30:48;;;;;;;125.68;119.47;;;16.40;99.90;;;;;;5039887;28;20048;-70
2023/07/01 06:33:14;;;;;;;123.88;118.10;;;16.40;99.90;;;;;;5036235;28;20520;-70
2023/07/01 06:35:42;;;;;;;121.20;115.60;;;16.40;99.90;;;;;;5025068;28;20041;-70
2023/07/01 06:38:11;;;;;;;128.02;121.88;;;16.30;99.90;;;;;;5026101;28;20096;-70
2023/07/01 06:40:37;;;;;;;163.57;154.10;;;16.30;99.90;;;;;;5020248;28;20500;-70
2023/07/01 06:43:03;;;;;;;139.07;132.68;;;16.40;99.90;;;;;;5025252;28;20061;-70
2023/07/01 06:45:29;;;;;;;153.02;146.00;;;16.40;99.90;;;;;;5027916;28;20390;-70
2023/07/01 06:47:56;;;;;;;137.57;130.98;;;16.40;99.90;;;;;;5004458;28;20103;-69
2023/07/01 06:50:22;;;;;;;151.50;144.38;;;16.40;99.90;;;;;;5024403;28;20049;-70
2023/07/01 06:52:47;;;;;;;102.38;97.38;;;16.40;99.90;;;;;;5022047;28;20049;-69
2023/07/01 06:55:13;;;;;;;136.63;130.57;;;16.50;99.90;;;;;;5021590;28;20417;-71
2023/07/01 06:57:40;;;;;;;150.75;144.00;;;16.50;99.90;;;;;;5022856;28;20036;-70
2023/07/01 07:00:10;;;;;;;159.40;151.88;;;16.50;99.90;;;;;;5006293;28;20057;-69
2023/07/01 07:02:36;;;;;;;180.77;172.80;;;16.50;99.90;;;;;;5024695;28;20083;-70
2023/07/01 07:05:04;;;;;;;194.30;185.82;;;16.40;99.90;;;;;;5025355;28;20080;-69
2023/07/01 07:07:29;;;;;;;200.30;191.48;;;16.50;99.90;;;;;;5009172;28;20053;-69
2023/07/01 07:09:55;;;;;;;219.88;210.20;;;16.50;99.90;;;;;;5017982;28;20510;-70
2023/07/01 07:12:22;;;;;;;131.00;124.90;;;16.50;99.90;;;;;;5015697;28;20093;-69
2023/07/01 07:14:47;;;;;;;211.77;202.80;;;16.60;99.90;;;;;;5023926;28;20069;-70
2023/07/01 07:17:13;;;;;;;186.65;178.57;;;16.60;99.90;;;;;;5023836;28;20111;-70
2023/07/01 07:19:39;;;;;;;212.40;203.38;;;16.60;99.90;;;;;;5024813;28;20041;-69
2023/07/01 07:22:05;;;;;;;215.45;206.20;;;16.60;99.90;;;;;;5024970;28;20046;-69
2023/07/01 07:24:31;;;;;;;175.90;168.02;;;16.60;99.90;;;;;;5020340;28;20494;-71
2023/07/01 07:27:00;;;;;;;173.65;165.93;;;16.70;99.90;;;;;;5021325;28;20091;-69
2023/07/01 07:29:33;;;;;;;225.15;215.25;;;16.70;99.90;;;;;;5011994;28;20120;-70
2023/07/01 07:31:59;;;;;;;196.60;188.07;;;16.80;99.90;;;;;;5025355;28;20504;-70
2023/07/01 07:34:25;;;;;;;200.45;191.80;;;16.80;99.90;;;;;;5034272;28;20048;-70
2023/07/01 07:36:52;;;;;;;182.73;175.07;;;16.80;99.90;;;;;;5049932;28;20044;-70
2023/07/01 07:39:17;;;;;;;199.68;191.10;;;16.80;99.90;;;;;;5023358;28;20445;-71
2023/07/01 07:41:45;;;;;;;226.52;216.85;;;16.80;99.90;;;;;;5021731;28;20041;-71
2023/07/01 07:44:10;;;;;;;200.23;191.50;;;16.80;99.90;;;;;;5024935;28;20057;-71
2023/07/01 07:46:38;;;;;;;255.23;244.18;;;16.90;99.90;;;;;;5015962;28;20088;-71
2023/07/01 07:49:04;;;;;;;254.43;243.45;;;17.00;99.90;;;;;;5044797;28;20045;-71
2023/07/01 07:51:30;;;;;;;240.82;230.63;;;17.00;99.90;;;;;;5044682;28;20497;-71
2023/07/01 07:53:56;;;;;;;254.45;243.65;;;17.20;99.90;;;;;;5011612;28;20056;-70
2023/07/01 07:56:22;;;;;;;209.48;200.27;;;17.30;99.90;;;;;;5024774;28;20498;-70
2023/07/01 07:58:48;;;;;;;229.50;219.77;;;17.40;99.90;;;;;;5028023;28;20049;-71
2023/07/01 08:01:14;;;;;;;210.15;201.48;;;17.50;99.90;;;;;;5023023;28;20037;-70
2023/07/01 08:03:40;;;;;;;179.85;172.32;;;17.50;99.90;;;;;;5026863;28;20045;-70
2023/07/01 08:06:06;;;;;;;200.93;192.38;;;17.50;99.90;;;;;;5019322;28;20463;-70
2023/07/01 08:08:32;;;;;;;184.32;176.50;;;17.50;99.90;;;;;;5011418;28;20476;-71
2023/07/01 08:11:01;;;;;;;194.90;186.80;;;17.50;99.90;;;;;;5026946;28;20045;-71
2023/07/01 08:13:27;;;;;;;151.77;145.35;;;17.50;99.90;;;;;;5027637;28;20064;-71
2023/07/01 08:15:53;;;;;;;193.07;184.88;;;17.50;99.90;;;;;;5019639;28;20069;-71
2023/07/01 08:18:19;;;;;;;184.88;177.23;;;17.60;99.90;;;;;;5015086;28;20042;-71
2023/07/01 08:20:45;;;;;;;185.65;177.88;;;17.50;99.90;;;;;;5027689;28;20037;-70
2023/07/01 08:23:12;;;;;;;188.40;180.55;;;17.50;99.90;;;;;;5011568;28;20037;-70
2023/07/01 08:25:42;;;;;;;166.63;159.55;;;17.50;99.90;;;;;;5042760;28;20041;-70
2023/07/01 08:28:08;;;;;;;176.02;168.60;;;17.50;99.90;;;;;;5021988;28;20081;-71
2023/07/01 08:30:34;;;;;;;193.05;184.93;;;17.50;99.90;;;;;;5027588;28;20077;-70
2023/07/01 08:33:00;;;;;;;170.40;163.35;;;17.50;99.90;;;;;;5004878;28;20552;-71
2023/07/01 08:35:25;;;;;;;190.80;181.85;;;17.60;99.90;;;;;;5027776;28;20049;-71
2023/07/01 08:37:51;;;;;;;189.23;181.30;;;17.70;99.90;;;;;;5025866;28;20045;-70
2023/07/01 08:40:17;;;;;;;189.25;181.43;;;17.70;99.90;;;;;;5023780;28;20065;-70
2023/07/01 08:42:58;;;;;;;216.85;207.98;;;17.80;99.90;;;;;;5024561;28;20057;-71
2023/07/01 08:45:24;;;;;;;205.55;197.10;;;17.80;99.90;;;;;;5043833;28;20049;-71
2023/07/01 08:47:53;;;;;;;196.73;188.57;;;17.90;99.90;;;;;;5007294;28;20046;-71
2023/07/01 08:50:20;;;;;;;172.35;165.20;;;17.90;99.90;;;;;;5027247;28;20120;-71
2023/07/01 08:52:51;;;;;;;246.32;235.93;;;18.00;99.90;;;;;;5019585;28;20073;-71
2023/07/01 08:55:17;;;;;;;231.68;221.93;;;18.10;99.90;;;;;;5022830;28;20037;-71
2023/07/01 08:57:43;;;;;;;269.40;257.58;;;18.10;99.90;;;;;;5042663;28;20379;-70
2023/07/01 09:00:12;;;;;;;303.13;289.88;;;18.20;99.90;;;;;;5006462;28;20099;-71
2023/07/01 09:02:39;;;;;;;294.80;281.77;;;18.30;99.90;;;;;;5019765;28;20084;-71
2023/07/01 09:05:05;;;;;;;274.20;262.25;;;18.20;99.90;;;;;;5043916;28;20051;-70
2023/07/01 09:07:31;;;;;;;253.35;242.85;;;18.30;99.90;;;;;;5027426;28;20037;-71
2023/07/01 09:09:57;;;;;;;200.27;191.43;;;18.30;99.90;;;;;;5007701;28;20599;-71
2023/07/01 09:12:27;;;;;;;292.23;279.27;;;18.50;99.90;;;;;;5026435;28;20140;-71
2023/07/01 09:15:10;;;;;;;272.42;260.67;;;18.40;99.90;;;;;;5026842;28;20413;-70
2023/07/01 09:17:38;;;;;;;276.40;264.73;;;18.50;99.90;;;;;;5035195;28;20076;-71
2023/07/01 09:20:12;;;;;;;289.05;276.75;;;18.40;99.90;;;;;;5027265;28;20052;-71
2023/07/01 09:22:41;;;;;;;296.35;283.60;;;18.30;99.90;;;;;;5017058;28;20152;-70
2023/07/01 09:25:07;;;;;;;267.63;256.08;;;18.20;99.90;;;;;;5033679;28;20049;-71
2023/07/01 09:27:39;;;;;;;295.80;283.05;;;18.10;99.90;;;;;;5041243;28;20044;-70
2023/07/01 09:30:26;;;;;;;252.15;241.52;;;18.20;99.90;;;;;;5021405;28;20116;-70
2023/07/01 09:33:09;;;;;;;199.07;190.95;;;18.20;99.90;;;;;;5030074;28;20095;-71
2023/07/01 09:35:45;;;;;;;240.57;230.48;;;18.20;99.90;;;;;;5025743;28;20072;-71
2023/07/01 09:38:10;;;;;;;244.98;234.63;;;18.20;99.90;;;;;;5011951;28;20044;-71
2023/07/01 09:40:36;;;;;;;257.60;246.82;;;18.20;99.90;;;;;;5023528;28;20041;-70
2023/07/01 09:43:02;;;;;;;247.93;237.75;;;18.20;99.90;;;;;;5016510;28;20446;-70
2023/07/01 09:45:28;;;;;;;247.18;236.95;;;18.20;99.90;;;;;;5034544;28;20152;-70
2023/07/01 09:47:54;;;;;;;190.35;182.55;;;18.20;99.90;;;;;;5002445;28;20037;-70
2023/07/01 09:50:29;;;;;;;240.77;230.88;;;18.30;99.90;;;;;;5015558;28;20076;-70
2023/07/01 09:52:55;;;;;;;307.02;293.98;;;18.50;99.90;;;;;;5025046;28;20041;-70
2023/07/01 09:55:22;;;;;;;303.17;289.77;;;18.80;99.90;;;;;;5032764;28;20064;-70
2023/07/01 09:57:48;;;;;;;296.77;284.55;;;19.00;99.90;;;;;;5022958;28;20041;-70
2023/07/01 10:00:16;;;;;;;318.50;304.73;;;19.20;99.90;;;;;;5010092;28;20409;-70
2023/07/01 10:02:44;;;;;;;264.70;253.68;;;19.30;99.90;;;;;;5042722;28;20498;-70
2023/07/01 10:05:10;;;;;;;321.30;307.45;;;19.40;99.90;;;;;;5015395;28;20632;-70
2023/07/01 10:07:35;;;;;;;215.85;206.55;;;19.30;99.90;;;;;;5025836;28;20417;-70
2023/07/01 10:10:02;;;;;;;236.88;226.73;;;19.30;99.90;;;;;;5026584;28;20041;-70
2023/07/01 10:12:29;;;;;;;315.45;301.88;;;19.20;99.90;;;;;;5023895;28;20120;-70
2023/07/01 10:14:55;;;;;;;251.43;240.68;;;19.00;99.90;;;;;;5025821;28;20178;-70
2023/07/01 10:17:21;;;;;;;258.67;247.70;;;18.90;99.90;;;;;;5000877;28;20061;-71
2023/07/01 10:19:47;;;;;;;204.20;195.75;;;18.80;99.90;;;;;;5007246;28;20053;-71
2023/07/01 10:22:30;;;;;;;247.77;237.30;;;18.80;99.90;;;;;;5040362;28;20041;-71
2023/07/01 10:25:03;;;;;;;261.23;249.57;;;18.80;99.90;;;;;;5006300;28;20576;-70
2023/07/01 10:27:41;;;;;;;268.25;256.60;;;18.90;99.90;;;;;;5041573;28;20405;-70
2023/07/01 10:30:08;;;;;;;290.88;277.92;;;18.90;99.90;;;;;;5019140;28;20045;-71
2023/07/01 10:32:34;;;;;;;295.05;282.02;;;19.00;99.90;;;;;;5025085;28;20058;-71
2023/07/01 10:35:03;;;;;;;250.35;239.60;;;19.10;99.90;;;;;;5007610;28;20095;-71
2023/07/01 10:37:30;;;;;;;261.00;249.98;;;19.20;99.90;;;;;;5025827;28;20038;-71
2023/07/01 10:39:56;;;;;;;284.05;271.30;;;19.30;99.90;;;;;;5026529;28;20057;-71
2023/07/01 10:42:33;;;;;;;301.95;288.42;;;19.30;99.90;;;;;;5004544;28;20060;-71
2023/07/01 10:45:11;;;;;;;260.15;249.02;;;19.30;99.90;;;;;;5033000;28;20048;-72
2023/07/01 10:47:44;;;;;;;438.52;416.70;;;19.30;99.90;;;;;;5023330;28;20441;-71
2023/07/01 10:50:14;;;;;;;422.10;400.95;;;19.30;99.90;;;;;;5014972;28;20117;-72
2023/07/01 10:52:58;;;;;;;459.85;436.27;;;19.30;99.90;;;;;;5026943;28;20810;-71
2023/07/01 10:55:37;;;;;;;270.98;258.85;;;19.20;99.90;;;;;;5005271;28;20064;-70
2023/07/01 10:58:23;;;;;;;416.15;395.73;;;19.10;99.90;;;;;;5026878;28;20489;-71
2023/07/01 11:00:58;;;;;;;258.80;247.07;;;18.90;99.90;;;;;;5009476;28;20034;-71
2023/07/01 11:03:33;;;;;;;220.70;211.30;;;18.90;99.90;;;;;;5010389;28;20045;-70
2023/07/01 11:06:06;;;;;;;271.27;259.73;;;18.80;99.90;;;;;;5038468;28;20053;-70
2023/07/01 11:08:35;;;;;;;293.48;280.48;;;18.80;99.90;;;;;;5026741;28;20048;-71
2023/07/01 11:11:00;;;;;;;308.90;295.42;;;18.90;99.90;;;;;;5026237;28;20049;-70
2023/07/01 11:13:26;;;;;;;289.13;276.42;;;19.00;99.90;;;;;;5011951;28;20041;-71
2023/07/01 11:16:08;;;;;;;282.52;270.40;;;19.20;99.90;;;;;;5028346;28;20041;-71
2023/07/01 11:18:49;;;;;;;230.05;220.32;;;19.30;99.90;;;;;;5028465;28;20033;-71
2023/07/01 11:21:19;;;;;;;228.95;219.43;;;19.50;99.90;;;;;;5020424;28;20087;-71
2023/07/01 11:24:03;;;;;;;146.70;140.30;;;19.60;99.90;;;;;;5023622;28;20049;-71
2023/07/01 11:26:31;;;;;;;425.48;404.23;;;19.60;99.90;;;;;;5022054;28;20045;-71
2023/07/01 11:28:56;;;;;;;323.90;308.75;;;19.60;99.90;;;;;;5021971;28;20045;-71
2023/07/01 11:31:30;;;;;;;244.88;233.90;;;19.50;99.90;;;;;;5018156;28;20083;-72
2023/07/01 11:33:56;;;;;;;258.15;246.63;;;19.50;99.90;;;;;;5032564;28;20041;-71
2023/07/01 11:36:34;;;;;;;351.35;334.20;;;19.60;99.90;;;;;;5009923;28;20041;-72
2023/07/01 11:39:04;;;;;;;450.02;427.45;;;19.60;99.90;;;;;;5012184;28;20038;-71
2023/07/01 11:41:30;;;;;;;436.45;415.10;;;19.40;99.90;;;;;;5022871;28;20907;-71
2023/07/01 11:43:56;;;;;;;466.67;442.95;;;19.30;99.90;;;;;;5011594;28;20144;-71
2023/07/01 11:46:33;;;;;;;450.13;427.05;;;19.10;99.90;;;;;;5026489;28;20053;-70
2023/07/01 11:49:23;;;;;;;415.92;395.70;;;19.10;99.90;;;;;;5000038;28;20048;-71
2023/07/01 11:51:51;;;;;;;429.58;407.92;;;18.90;99.90;;;;;;5014973;28;20053;-71
2023/07/01 11:54:21;;;;;;;393.98;374.75;;;18.90;99.90;;;;;;5019531;28;20121;-71
2023/07/01 11:56:47;;;;;;;276.55;264.00;;;18.90;99.90;;;;;;5027397;28;20041;-71
2023/07/01 11:59:34;;;;;;;269.90;257.38;;;19.10;99.90;;;;;;5012559;28;20564;-71
2023/07/01 12:02:00;;;;;;;403.35;382.92;;;19.40;99.90;;;;;;5022604;28;20135;-71
2023/07/01 12:04:27;;;;;;;446.98;424.52;;;19.70;99.90;;;;;;5028385;28;20057;-71
2023/07/01 12:07:12;;;;;;;510.88;485.15;;;19.90;99.90;;;;;;5027368;28;20037;-71
2023/07/01 12:09:42;;;;;;;482.00;457.85;;;20.20;99.90;;;;;;5043976;28;20045;-72
2023/07/01 12:12:16;;;;;;;476.48;452.75;;;20.40;99.90;;;;;;5011173;28;20486;-71